createdAt,value
2022-11-02T00:01:22.767Z,15.59
2022-11-02T00:03:55.772Z,15.64
2022-11-02T00:06:30.078Z,15.65
2022-11-02T00:09:03.211Z,15.57
2022-11-02T00:11:37.438Z,15.65
2022-11-02T00:14:10.136Z,15.38
2022-11-02T00:16:43.361Z,15.45
2022-11-02T00:19:16.265Z,15.50
2022-11-02T00:21:50.614Z,15.46
2022-11-02T00:24:23.662Z,15.34
2022-11-02T00:26:56.613Z,15.50
2022-11-02T00:29:33.669Z,15.47
2022-11-02T00:32:06.985Z,15.43
2022-11-02T00:34:39.634Z,15.48
2022-11-02T00:37:13.931Z,15.37
2022-11-02T00:39:46.681Z,15.39
2022-11-02T00:42:19.492Z,15.45
2022-11-02T00:44:52.362Z,15.46
2022-11-02T00:47:25.927Z,15.48
2022-11-02T00:49:59.669Z,15.37
2022-11-02T00:52:34.719Z,15.26
2022-11-02T00:55:08.934Z,15.23
2022-11-02T00:57:42.108Z,15.33
2022-11-02T01:00:17.313Z,15.23
2022-11-02T01:02:50.940Z,15.37
2022-11-02T01:05:23.888Z,15.28
2022-11-02T01:07:58.130Z,15.12
2022-11-02T01:10:32.745Z,15.12
2022-11-02T01:13:06.418Z,15.14
2022-11-02T01:15:39.111Z,15.09
2022-11-02T01:18:11.946Z,15.00
2022-11-02T01:20:44.746Z,14.97
2022-11-02T01:23:19.667Z,14.88
2022-11-02T01:25:52.584Z,14.88
2022-11-02T01:28:28.259Z,14.97
2022-11-02T01:31:01.268Z,14.83
2022-11-02T01:33:34.950Z,14.85
2022-11-02T01:36:09.392Z,14.80
2022-11-02T01:38:43.680Z,14.75
2022-11-02T01:41:16.673Z,14.74
2022-11-02T01:43:52.578Z,14.74
2022-11-02T01:46:38.130Z,14.81
2022-11-02T01:49:15.615Z,14.78
2022-11-02T01:51:52.488Z,14.73
2022-11-02T01:54:30.475Z,14.70
2022-11-02T01:57:05.997Z,14.67
2022-11-02T01:59:45.822Z,14.64
2022-11-02T02:02:22.645Z,14.59
2022-11-02T02:05:01.179Z,14.58
2022-11-02T02:07:42.018Z,14.66
2022-11-02T02:10:16.403Z,14.71
2022-11-02T02:12:49.413Z,14.76
2022-11-02T02:15:36.246Z,14.64
2022-11-02T02:18:17.908Z,14.84
2022-11-02T02:21:06.838Z,14.79
2022-11-02T02:24:05.545Z,14.80
2022-11-02T02:27:02.030Z,14.71
2022-11-02T02:29:47.839Z,14.81
2022-11-02T02:32:29.586Z,14.74
2022-11-02T02:35:15.079Z,14.88
2022-11-02T02:37:55.377Z,14.77
2022-11-02T02:40:36.609Z,14.89
2022-11-02T02:43:13.490Z,14.77
2022-11-02T02:45:53.478Z,14.79
2022-11-02T02:48:27.901Z,14.81
2022-11-02T02:51:05.237Z,14.84
2022-11-02T02:53:43.202Z,14.78
2022-11-02T02:56:19.934Z,14.73
2022-11-02T02:58:59.356Z,14.78
2022-11-02T03:01:35.938Z,14.75
2022-11-02T03:04:11.179Z,14.68
2022-11-02T03:06:49.138Z,14.73
2022-11-02T03:09:33.066Z,14.59
2022-11-02T03:12:22.802Z,14.74
2022-11-02T03:15:10.440Z,14.66
2022-11-02T03:17:58.820Z,14.63
2022-11-02T03:20:41.964Z,14.58
2022-11-02T03:23:21.240Z,14.69
2022-11-02T03:26:04.407Z,14.63
2022-11-02T03:28:53.014Z,14.67
2022-11-02T03:31:36.178Z,14.73
2022-11-02T03:34:25.472Z,14.76
2022-11-02T03:37:04.779Z,14.78
2022-11-02T03:39:42.162Z,14.77
2022-11-02T03:42:19.977Z,14.76
2022-11-02T03:45:01.029Z,14.77
2022-11-02T03:47:37.570Z,14.70
2022-11-02T03:50:21.032Z,14.67
2022-11-02T03:53:01.250Z,14.67
2022-11-02T03:55:38.903Z,14.65
2022-11-02T03:58:15.136Z,14.70
2022-11-02T04:00:52.904Z,14.63
2022-11-02T04:03:25.919Z,14.51
2022-11-02T04:06:01.482Z,14.65
2022-11-02T04:08:40.917Z,14.71
2022-11-02T04:11:33.960Z,14.75
2022-11-02T04:14:39.842Z,14.72
2022-11-02T04:17:40.052Z,14.71
2022-11-02T04:20:17.793Z,14.76
2022-11-02T04:23:09.307Z,14.69
2022-11-02T04:25:42.234Z,14.75
2022-11-02T04:28:20.516Z,14.71
2022-11-02T04:30:59.153Z,14.74
2022-11-02T04:33:33.624Z,14.54
2022-11-02T04:36:15.761Z,14.62
2022-11-02T04:38:51.862Z,14.61
2022-11-02T04:41:46.465Z,14.63
2022-11-02T04:44:27.919Z,14.67
2022-11-02T04:47:11.527Z,14.61
2022-11-02T04:49:44.303Z,14.61
2022-11-02T04:52:21.409Z,14.56
2022-11-02T04:54:58.227Z,14.53
2022-11-02T04:57:31.518Z,14.54
2022-11-02T05:00:07.798Z,14.62
2022-11-02T05:02:40.886Z,14.60
2022-11-02T05:05:14.095Z,14.49
2022-11-02T05:07:47.810Z,14.43
2022-11-02T05:10:22.064Z,14.45
2022-11-02T05:12:58.433Z,14.44
2022-11-02T05:15:34.300Z,14.23
2022-11-02T05:18:16.140Z,14.46
2022-11-02T05:20:52.503Z,14.26
2022-11-02T05:23:26.797Z,14.33
2022-11-02T05:26:02.347Z,14.31
2022-11-02T05:28:37.300Z,14.36
2022-11-02T05:31:11.159Z,14.45
2022-11-02T05:33:44.583Z,14.48
2022-11-02T05:36:21.785Z,14.39
2022-11-02T05:38:57.294Z,14.36
2022-11-02T05:41:44.138Z,14.26
2022-11-02T05:44:17.426Z,14.29
2022-11-02T05:46:50.944Z,14.35
2022-11-02T05:49:23.659Z,14.35
2022-11-02T05:51:56.410Z,14.38
2022-11-02T05:54:29.873Z,14.39
2022-11-02T05:57:04.108Z,14.44
2022-11-02T05:59:36.913Z,14.32
2022-11-02T06:02:09.727Z,14.38
2022-11-02T06:04:42.559Z,14.32
2022-11-02T06:07:15.361Z,14.24
2022-11-02T06:09:48.534Z,14.24
2022-11-02T06:12:22.813Z,14.33
2022-11-02T06:14:55.923Z,14.26
2022-11-02T06:17:28.494Z,14.26
2022-11-02T06:20:01.251Z,14.19
2022-11-02T06:22:40.229Z,14.26
2022-11-02T06:25:13.898Z,14.19
2022-11-02T06:27:55.060Z,14.22
2022-11-02T06:30:29.968Z,14.29
2022-11-02T06:33:07.016Z,14.18
2022-11-02T06:35:40.410Z,14.14
2022-11-02T06:38:13.039Z,14.12
2022-11-02T06:40:54.511Z,14.15
2022-11-02T06:43:28.989Z,14.02
2022-11-02T06:46:02.803Z,14.18
2022-11-02T06:48:36.258Z,14.17
2022-11-02T06:51:09.262Z,14.17
2022-11-02T06:53:41.874Z,14.18
2022-11-02T06:56:15.426Z,14.13
2022-11-02T06:58:49.501Z,14.10
2022-11-02T07:01:22.436Z,14.22
2022-11-02T07:03:55.163Z,14.22
2022-11-02T07:06:28.134Z,14.01
2022-11-02T07:09:00.674Z,14.08
2022-11-02T07:11:33.367Z,14.07
2022-11-02T07:14:07.665Z,14.08
2022-11-02T07:16:40.585Z,14.02
2022-11-02T07:19:13.298Z,14.03
2022-11-02T07:21:47.765Z,14.12
2022-11-02T07:24:20.837Z,14.12
2022-11-02T07:26:53.521Z,14.13
2022-11-02T07:29:27.659Z,14.15
2022-11-02T07:32:00.266Z,14.03
2022-11-02T07:34:32.916Z,14.14
2022-11-02T07:37:05.777Z,14.09
2022-11-02T07:39:38.612Z,14.15
2022-11-02T07:42:11.322Z,14.21
2022-11-02T07:44:45.320Z,14.18
2022-11-02T07:47:18.877Z,14.23
2022-11-02T07:49:51.624Z,14.25
2022-11-02T07:52:24.298Z,14.21
2022-11-02T07:54:57.139Z,14.14
2022-11-02T07:57:30.454Z,14.19
2022-11-02T08:00:05.525Z,14.20
2022-11-02T08:02:44.299Z,14.13
2022-11-02T08:05:17.259Z,14.22
2022-11-02T08:07:57.596Z,14.32
2022-11-02T08:10:35.447Z,14.27
2022-11-02T08:13:13.618Z,14.28
2022-11-02T08:15:50.315Z,14.32
2022-11-02T08:18:24.451Z,14.39
2022-11-02T08:20:58.420Z,14.34
2022-11-02T08:23:31.317Z,14.40
2022-11-02T08:26:04.037Z,14.41
2022-11-02T08:28:40.078Z,14.42
2022-11-02T08:31:16.537Z,14.35
2022-11-02T08:33:49.246Z,14.40
2022-11-02T08:36:21.927Z,14.42
2022-11-02T08:38:54.690Z,14.36
2022-11-02T08:41:27.388Z,14.48
2022-11-02T08:44:00.369Z,14.49
2022-11-02T08:46:34.413Z,14.52
2022-11-02T08:49:07.486Z,14.51
2022-11-02T08:51:40.023Z,14.53
2022-11-02T08:54:12.795Z,14.42
2022-11-02T08:56:45.515Z,14.55
2022-11-02T08:59:19.499Z,14.50
2022-11-02T09:01:53.634Z,14.61
2022-11-02T09:04:26.653Z,14.56
2022-11-02T09:06:59.574Z,14.65
2022-11-02T09:09:32.448Z,14.65
2022-11-02T09:12:05.683Z,14.65
2022-11-02T09:14:38.934Z,14.78
2022-11-02T09:17:13.073Z,14.75
2022-11-02T09:19:45.808Z,14.80
2022-11-02T09:22:18.516Z,14.76
2022-11-02T09:24:51.526Z,14.75
2022-11-02T09:27:24.235Z,14.82
2022-11-02T09:29:56.929Z,14.83
2022-11-02T09:32:33.387Z,14.75
2022-11-02T09:35:08.930Z,14.71
2022-11-02T09:37:49.982Z,14.70
2022-11-02T09:40:26.066Z,14.85
2022-11-02T09:43:07.223Z,14.92
2022-11-02T09:45:54.088Z,14.89
2022-11-02T09:48:33.946Z,14.97
2022-11-02T09:51:11.896Z,15.07
2022-11-02T09:53:56.040Z,15.16
2022-11-02T09:56:30.923Z,15.35
2022-11-02T09:59:06.888Z,15.30
2022-11-02T10:01:55.922Z,15.43
2022-11-02T10:05:01.856Z,15.41
2022-11-02T10:07:59.542Z,15.51
2022-11-02T10:10:38.001Z,15.61
2022-11-02T10:13:23.835Z,15.59
2022-11-02T10:16:01.293Z,15.66
2022-11-02T10:18:36.621Z,15.77
2022-11-02T10:21:14.625Z,15.79
2022-11-02T10:23:52.338Z,15.85
2022-11-02T10:26:28.349Z,15.90
2022-11-02T10:29:16.761Z,15.94
2022-11-02T10:31:49.632Z,15.92
2022-11-02T10:34:27.170Z,15.94
2022-11-02T10:37:16.393Z,16.01
2022-11-02T10:39:57.571Z,16.06
2022-11-02T10:42:44.844Z,16.13
2022-11-02T10:45:38.953Z,16.19
2022-11-02T10:48:20.929Z,16.28
2022-11-02T10:51:01.559Z,16.32
2022-11-02T10:53:41.610Z,16.45
2022-11-02T10:56:22.201Z,16.52
2022-11-02T10:59:03.239Z,16.57
2022-11-02T11:01:36.081Z,16.72
2022-11-02T11:04:22.229Z,16.86
2022-11-02T11:06:56.583Z,16.90
2022-11-02T11:09:41.697Z,16.97
2022-11-02T11:12:22.488Z,17.02
2022-11-02T11:20:45.370Z,17.24
2022-11-02T11:23:22.238Z,17.28
2022-11-02T11:25:58.831Z,17.40
2022-11-02T11:28:34.157Z,17.39
2022-11-02T11:31:15.496Z,17.47
2022-11-02T11:33:51.532Z,17.56
2022-11-02T11:36:30.554Z,17.68
2022-11-02T11:39:05.805Z,17.69
2022-11-02T11:41:41.791Z,17.66
2022-11-02T11:44:16.561Z,17.68
2022-11-02T11:46:54.438Z,17.61
2022-11-02T11:50:02.836Z,17.70
2022-11-02T11:52:32.043Z,17.63
2022-11-02T11:55:22.105Z,17.62
2022-11-02T11:58:15.180Z,17.70
2022-11-02T12:01:10.218Z,17.60
2022-11-02T12:03:54.156Z,17.57
2022-11-02T12:06:29.189Z,17.53
2022-11-02T12:09:08.026Z,17.49
2022-11-02T12:11:54.902Z,17.47
2022-11-02T12:14:42.528Z,17.49
2022-11-02T12:17:41.540Z,17.46
2022-11-02T12:20:29.125Z,17.36
2022-11-02T12:23:09.536Z,17.35
2022-11-02T12:25:51.402Z,17.30
2022-11-02T12:28:39.875Z,17.27
2022-11-02T12:31:25.879Z,17.29
2022-11-02T12:34:19.841Z,17.21
2022-11-02T12:40:14.569Z,17.10
2022-11-02T12:42:54.172Z,17.06
2022-11-02T12:45:37.291Z,16.85
2022-11-02T12:48:20.245Z,16.90
2022-11-02T12:50:59.833Z,16.89
2022-11-02T12:53:44.355Z,16.80
2022-11-02T12:56:22.058Z,16.81
2022-11-02T12:58:56.567Z,16.73
2022-11-02T13:01:35.894Z,16.70
2022-11-02T13:04:18.347Z,16.72
2022-11-02T13:06:54.037Z,16.76
2022-11-02T13:09:31.509Z,16.65
2022-11-02T13:12:09.405Z,16.69
2022-11-02T13:14:46.767Z,16.75
2022-11-02T13:17:23.467Z,16.68
2022-11-02T13:20:01.630Z,16.67
2022-11-02T13:22:39.388Z,16.64
2022-11-02T13:25:17.425Z,16.61
2022-11-02T13:27:54.202Z,16.69
2022-11-02T13:30:28.446Z,16.53
2022-11-02T13:33:05.347Z,16.55
2022-11-02T13:35:40.911Z,16.55
2022-11-02T13:38:30.127Z,16.50
2022-11-02T13:41:19.119Z,16.48
2022-11-02T13:44:24.661Z,16.60
2022-11-02T13:47:12.927Z,16.53
2022-11-02T13:49:51.342Z,16.53
2022-11-02T13:52:35.265Z,16.58
2022-11-02T13:55:10.753Z,16.60
2022-11-02T13:57:47.203Z,16.66
2022-11-02T14:00:32.938Z,16.51
2022-11-02T14:03:14.539Z,16.50
2022-11-02T14:05:51.835Z,16.62
2022-11-02T14:08:35.557Z,16.50
2022-11-02T14:11:25.549Z,16.57
2022-11-02T14:14:22.911Z,16.47
2022-11-02T14:17:13.523Z,16.34
2022-11-02T14:19:55.433Z,16.37
2022-11-02T14:22:31.099Z,16.38
2022-11-02T14:25:26.237Z,16.35
2022-11-02T14:28:02.303Z,16.25
2022-11-02T14:30:48.934Z,16.20
2022-11-02T14:33:53.545Z,16.32
2022-11-02T14:36:42.314Z,16.21
2022-11-02T14:39:24.648Z,16.25
2022-11-02T14:42:13.588Z,16.20
2022-11-02T14:45:22.019Z,16.13
2022-11-02T14:47:59.195Z,16.11
2022-11-02T14:50:32.986Z,16.12
2022-11-02T14:53:09.508Z,16.05
2022-11-02T14:55:43.367Z,16.12
2022-11-02T14:58:20.179Z,16.02
2022-11-02T15:00:59.259Z,16.04
2022-11-02T15:03:36.533Z,15.92
2022-11-02T15:06:18.900Z,15.82
2022-11-02T15:08:55.915Z,15.90
2022-11-02T15:11:45.183Z,15.89
2022-11-02T15:14:54.915Z,15.73
2022-11-02T15:17:53.658Z,15.75
2022-11-02T15:20:32.115Z,15.77
2022-11-02T15:23:29.499Z,15.79
2022-11-02T15:26:07.231Z,15.75
2022-11-02T15:28:40.199Z,15.63
2022-11-02T15:31:21.786Z,15.57
2022-11-02T15:34:00.633Z,15.57
2022-11-02T15:36:37.344Z,15.54
2022-11-02T15:39:12.585Z,15.49
2022-11-02T15:41:46.739Z,15.49
2022-11-02T15:44:42.870Z,15.48
2022-11-02T15:47:28.059Z,15.44
2022-11-02T15:50:31.101Z,15.55
2022-11-02T15:53:23.402Z,15.47
2022-11-02T15:56:14.389Z,15.45
2022-11-02T15:59:06.268Z,15.33
2022-11-02T16:01:40.676Z,15.42
2022-11-02T16:04:22.913Z,15.41
2022-11-02T16:06:56.548Z,15.40
2022-11-02T16:09:34.949Z,15.33
2022-11-02T16:12:13.266Z,15.33
2022-11-02T16:14:54.035Z,15.27
2022-11-02T16:17:29.181Z,15.26
2022-11-02T16:20:19.199Z,15.22
2022-11-02T16:22:55.865Z,15.18
2022-11-02T16:25:40.003Z,15.24
2022-11-02T16:28:22.034Z,15.30
2022-11-02T16:31:15.662Z,15.29
2022-11-02T16:33:52.335Z,15.27
2022-11-02T16:36:28.444Z,15.21
2022-11-02T16:39:03.508Z,15.21
2022-11-02T16:41:37.430Z,15.10
2022-11-02T16:44:12.841Z,15.12
2022-11-02T16:46:50.633Z,15.06
2022-11-02T16:49:24.887Z,15.05
2022-11-02T16:52:00.308Z,15.00
2022-11-02T16:54:41.264Z,15.08
2022-11-02T16:57:19.387Z,15.08
2022-11-02T16:59:55.189Z,15.04
2022-11-02T17:02:35.972Z,15.04
2022-11-02T17:05:18.798Z,15.00
2022-11-02T17:08:00.377Z,15.02
2022-11-02T17:10:36.601Z,15.00
2022-11-02T17:13:21.885Z,14.98
2022-11-02T17:15:56.884Z,15.00
2022-11-02T17:18:30.301Z,14.99
2022-11-02T17:21:26.152Z,15.07
2022-11-02T17:24:00.758Z,14.91
2022-11-02T17:26:37.448Z,14.92
2022-11-02T17:29:33.079Z,14.91
2022-11-02T17:32:07.323Z,14.85
2022-11-02T17:34:40.715Z,14.95
2022-11-02T17:37:23.786Z,15.09
2022-11-02T17:40:01.507Z,14.87
2022-11-02T17:42:52.072Z,14.96
2022-11-02T17:45:28.378Z,15.00
2022-11-02T17:48:02.981Z,15.02
2022-11-02T17:50:38.260Z,14.93
2022-11-02T17:53:13.814Z,15.00
2022-11-02T17:55:47.969Z,14.94
2022-11-02T17:58:20.712Z,14.87
2022-11-02T18:00:54.727Z,15.01
2022-11-02T18:03:31.094Z,14.91
2022-11-02T18:06:04.615Z,14.89
2022-11-02T18:09:01.515Z,14.88
2022-11-02T18:11:35.876Z,14.92
2022-11-02T18:14:14.078Z,14.87
2022-11-02T18:16:47.867Z,14.89
2022-11-02T18:19:20.786Z,14.86
2022-11-02T18:21:54.067Z,14.83
2022-11-02T18:24:27.798Z,14.78
2022-11-02T18:27:01.828Z,14.78
2022-11-02T18:29:34.703Z,14.70
2022-11-02T18:32:07.522Z,14.71
2022-11-02T18:34:40.442Z,14.76
2022-11-02T18:37:13.156Z,14.75
2022-11-02T18:39:45.889Z,14.71
2022-11-02T18:42:20.399Z,14.68
2022-11-02T18:44:53.027Z,14.68
2022-11-02T18:47:26.100Z,14.69
2022-11-02T18:50:00.131Z,14.69
2022-11-02T18:52:33.128Z,14.84
2022-11-02T18:55:06.763Z,14.83
2022-11-02T18:57:40.920Z,14.73
2022-11-02T19:00:14.738Z,14.72
2022-11-02T19:02:47.518Z,14.80
2022-11-02T19:05:38.154Z,14.72
2022-11-02T19:08:28.847Z,14.68
2022-11-02T19:11:01.704Z,14.68
2022-11-02T19:13:35.714Z,14.71
2022-11-02T19:16:08.870Z,14.68
2022-11-02T19:18:41.678Z,14.60
2022-11-02T19:21:14.596Z,14.61
2022-11-02T19:23:47.340Z,14.69
2022-11-02T19:26:20.012Z,14.72
2022-11-02T19:28:54.288Z,14.75
2022-11-02T19:31:27.125Z,14.71
2022-11-02T19:34:00.799Z,14.76
2022-11-02T19:36:33.788Z,14.67
2022-11-02T19:39:08.482Z,14.65
2022-11-02T19:41:41.472Z,14.60
2022-11-02T19:44:15.540Z,14.65
2022-11-02T19:46:48.631Z,14.60
2022-11-02T19:49:21.301Z,14.61
2022-11-02T19:51:54.118Z,14.64
2022-11-02T19:54:26.820Z,14.58
2022-11-02T19:56:59.721Z,14.58
2022-11-02T19:59:34.122Z,14.56
2022-11-02T20:02:06.790Z,14.58
2022-11-02T20:04:42.322Z,14.60
2022-11-02T20:07:15.452Z,14.61
2022-11-02T20:09:48.239Z,14.56
2022-11-02T20:12:21.008Z,14.61
2022-11-02T20:14:55.024Z,14.53
2022-11-02T20:17:41.891Z,14.68
2022-11-02T20:20:21.261Z,14.64
2022-11-02T20:22:53.856Z,14.63
2022-11-02T20:25:28.764Z,14.66
2022-11-02T20:28:01.473Z,14.52
2022-11-02T20:30:35.611Z,14.57
2022-11-02T20:33:08.315Z,14.59
2022-11-02T20:35:44.767Z,14.57
2022-11-02T20:38:17.951Z,14.57
2022-11-02T20:40:50.687Z,14.54
2022-11-02T20:43:23.403Z,14.56
2022-11-02T20:46:31.480Z,14.69
2022-11-02T20:49:01.445Z,14.79
2022-11-02T20:51:41.933Z,14.73
2022-11-02T20:54:14.632Z,14.73
2022-11-02T20:56:47.538Z,14.68
2022-11-02T20:59:20.373Z,14.64
2022-11-02T21:01:54.538Z,14.71
2022-11-02T21:04:27.392Z,14.64
2022-11-02T21:07:00.288Z,14.67
2022-11-02T21:09:33.078Z,14.69
2022-11-02T21:12:23.691Z,14.69
2022-11-02T21:14:56.445Z,14.60
2022-11-02T21:17:30.786Z,14.69
2022-11-02T21:20:28.476Z,14.68
2022-11-02T21:22:57.795Z,14.52
2022-11-02T21:25:30.677Z,14.46
2022-11-02T21:28:03.691Z,14.54
2022-11-02T21:30:36.276Z,14.48
2022-11-02T21:33:10.369Z,14.58
2022-11-02T21:35:43.031Z,14.50
2022-11-02T21:38:15.761Z,14.58
2022-11-02T21:40:48.693Z,14.58
2022-11-02T21:43:21.535Z,14.54
2022-11-02T21:45:55.804Z,14.60
2022-11-02T21:48:32.472Z,14.60
2022-11-02T21:51:07.657Z,14.63
2022-11-02T21:53:42.051Z,14.67
2022-11-02T21:56:16.815Z,14.70
2022-11-02T21:58:50.242Z,14.64
2022-11-02T22:01:43.369Z,14.60
2022-11-02T22:04:21.800Z,14.62
2022-11-02T22:06:55.173Z,14.54
2022-11-02T22:09:28.624Z,14.66
2022-11-02T22:12:18.954Z,14.60
2022-11-02T22:14:52.955Z,14.54
2022-11-02T22:17:48.732Z,14.61
2022-11-02T22:20:19.868Z,14.61
2022-11-02T22:22:53.626Z,14.55
2022-11-02T22:25:26.415Z,14.58
2022-11-02T22:27:59.123Z,14.54
2022-11-02T22:30:32.105Z,14.65
2022-11-02T22:33:05.882Z,14.49
2022-11-02T22:35:40.167Z,14.53
2022-11-02T22:38:30.815Z,14.56
2022-11-02T22:41:04.215Z,14.62
2022-11-02T22:43:36.967Z,14.60
2022-11-02T22:46:10.877Z,14.58
2022-11-02T22:48:43.774Z,14.55
2022-11-02T22:51:19.089Z,14.49
2022-11-02T22:53:52.489Z,14.40
2022-11-02T22:56:25.219Z,14.47
2022-11-02T22:58:59.208Z,14.47
2022-11-02T23:01:33.455Z,14.43
2022-11-02T23:04:07.420Z,14.43
2022-11-02T23:06:41.700Z,14.46
2022-11-02T23:09:14.675Z,14.52
2022-11-02T23:11:47.429Z,14.55
2022-11-02T23:14:21.391Z,14.52
2022-11-02T23:16:57.111Z,14.55
2022-11-02T23:19:30.036Z,14.47
2022-11-02T23:22:23.829Z,14.56
2022-11-02T23:25:15.361Z,14.58
2022-11-02T23:28:12.660Z,14.56
2022-11-02T23:31:03.555Z,14.52
2022-11-02T23:33:36.791Z,14.47
2022-11-02T23:36:13.194Z,14.47
2022-11-02T23:39:06.906Z,14.52
2022-11-02T23:41:39.552Z,14.46
2022-11-02T23:44:13.847Z,14.56
2022-11-02T23:46:49.735Z,14.42
2022-11-02T23:49:22.461Z,14.53
2022-11-02T23:52:13.051Z,14.51
2022-11-02T23:55:04.809Z,14.40
2022-11-02T23:57:37.552Z,14.36
